Aho, North Carolina
Current Conditions -  °F | °C
As of 8:35 AM on Saturday 01 Nov 2014 (Local Time) from KTNB Reporting Station
Light Snow Light Snow  
Wind Chill: -6°   Ceiling: 700
Heat Index:   Visibility: 1.5mi
Dew Point: -3°   Wind: 12mph
Humidity: 85%   Direction: 320°NW
Pressure: 29.8"   Gusts: 24mph
Location:  36.0473°N, 81.8148°W
Report Text: KTNB 011235Z AUTO 32010G21KT 1 1/2SM -SN VV007 00/M03 A2980 RMK AO2 T10051027
Loading
Personal Weather Stations






























Interactive Weather Map
Tropical Storm Tracking
New forecast layout! Learn more

10-Day Weather Forecast

Advertisements
Track Severe Weather on mobile